Time;durP1;ratioP1;P1;durP2;ratioP2;P2;SDS_P1;SDS_P2;PMS_P1;PMS_P2;Temp;Humidity;BMP_temperature;BMP_pressure;BME280_temperature;BME280_humidity;BME280_pressure;Samples;Min_cycle;Max_cycle;Signal;HPM_P1;HPM_P2
2022/04/25 00:01:10;;;;;;;2.75;1.30;;;22.60;34.40;;;;;;5127754;27;20153;-41
2022/04/25 00:03:37;;;;;;;2.35;1.50;;;22.60;34.50;;;;;;5162740;27;20156;-41
2022/04/25 00:06:03;;;;;;;3.22;1.60;;;22.60;34.40;;;;;;5145126;27;20010;-40
2022/04/25 00:08:30;;;;;;;2.55;1.70;;;22.60;34.50;;;;;;5162667;27;20018;-46
2022/04/25 00:10:56;;;;;;;2.05;1.40;;;22.60;34.50;;;;;;5161797;27;20003;-41
2022/04/25 00:13:22;;;;;;;2.00;1.50;;;22.60;34.60;;;;;;5161188;27;20021;-39
2022/04/25 00:15:48;;;;;;;2.22;1.30;;;22.60;34.50;;;;;;5160767;27;20026;-40
2022/04/25 00:18:14;;;;;;;2.20;1.50;;;22.60;34.60;;;;;;5161382;27;20014;-41
2022/04/25 00:20:40;;;;;;;2.03;1.60;;;22.60;34.60;;;;;;5161734;27;20058;-42
2022/04/25 00:23:07;;;;;;;2.28;1.60;;;22.50;34.60;;;;;;5162252;27;20030;-40
2022/04/25 00:25:34;;;;;;;3.88;1.60;;;22.50;34.60;;;;;;5161186;27;20014;-39
2022/04/25 00:28:01;;;;;;;4.93;1.60;;;22.50;34.60;;;;;;5159507;27;20052;-39
2022/04/25 00:30:28;;;;;;;3.00;1.73;;;22.50;34.60;;;;;;5159703;27;20011;-39
2022/04/25 00:32:57;;;;;;;2.83;1.73;;;22.60;34.70;;;;;;5159349;27;20039;-39
2022/04/25 00:35:23;;;;;;;2.63;1.60;;;22.50;34.70;;;;;;5160034;27;20038;-39
2022/04/25 00:37:50;;;;;;;3.45;1.55;;;22.50;34.70;;;;;;5160593;27;20024;-42
2022/04/25 00:40:18;;;;;;;2.78;1.52;;;22.50;34.70;;;;;;5161757;27;20014;-41
2022/04/25 00:42:44;;;;;;;2.13;1.50;;;22.50;34.80;;;;;;5162830;27;20045;-42
2022/04/25 00:45:11;;;;;;;1.92;1.40;;;22.50;34.80;;;;;;5160799;27;20039;-42
2022/04/25 00:47:38;;;;;;;3.15;1.70;;;22.50;34.80;;;;;;5161973;27;20017;-42
2022/04/25 00:50:06;;;;;;;1.90;1.50;;;22.50;34.80;;;;;;5162275;27;20376;-42
2022/04/25 00:52:32;;;;;;;3.00;1.73;;;22.50;34.80;;;;;;5162372;27;20476;-39
2022/04/25 00:54:59;;;;;;;2.35;1.60;;;22.50;34.80;;;;;;5143802;27;20400;-41
2022/04/25 00:57:25;;;;;;;2.72;1.48;;;22.40;34.80;;;;;;5160942;27;20105;-40
2022/04/25 00:59:50;;;;;;;2.30;1.90;;;22.50;34.90;;;;;;5142941;27;20480;-42
2022/04/25 01:02:16;;;;;;;2.08;1.42;;;22.40;34.80;;;;;;5143257;27;20023;-42
2022/04/25 01:04:43;;;;;;;2.55;1.60;;;22.40;35.10;;;;;;5161697;27;20048;-42
2022/04/25 01:07:09;;;;;;;2.70;1.55;;;22.40;34.90;;;;;;5143664;27;20019;-43
2022/04/25 01:09:35;;;;;;;2.28;1.48;;;22.40;34.90;;;;;;5161861;27;20007;-41
2022/04/25 01:12:01;;;;;;;1.98;1.38;;;22.40;34.90;;;;;;5163575;27;20071;-43
2022/04/25 01:14:29;;;;;;;1.83;1.42;;;22.40;35.00;;;;;;5163438;27;20026;-41
2022/04/25 01:16:55;;;;;;;2.22;1.50;;;22.40;35.00;;;;;;5144669;27;20560;-40
2022/04/25 01:19:21;;;;;;;2.00;1.50;;;22.40;35.00;;;;;;5163015;27;20102;-45
2022/04/25 01:22:10;;;;;;;2.47;1.70;;;22.40;35.00;;;;;;5162513;27;20078;-42
2022/04/25 01:27:21;;;;;;;2.53;1.42;;;22.40;35.10;;;;;;5146978;27;20098;-43
2022/04/25 01:29:52;;;;;;;3.97;1.77;;;22.40;35.10;;;;;;5162142;27;20033;-41
2022/04/25 01:32:18;;;;;;;1.90;1.40;;;22.40;35.10;;;;;;5162819;27;20007;-44
2022/04/25 01:34:44;;;;;;;2.35;1.50;;;22.40;35.10;;;;;;5144411;27;20067;-42
2022/04/25 01:37:11;;;;;;;2.67;1.63;;;22.30;35.10;;;;;;5162759;27;20018;-43
2022/04/25 01:39:45;;;;;;;1.30;1.17;;;22.30;35.10;;;;;;5145153;27;20007;-40
2022/04/25 01:42:12;;;;;;;2.78;1.40;;;22.30;35.20;;;;;;5162299;27;20011;-42
2022/04/25 01:44:37;;;;;;;2.30;1.60;;;22.30;35.20;;;;;;5162487;27;20084;-40
2022/04/25 01:47:04;;;;;;;1.63;1.30;;;22.30;35.20;;;;;;5144559;27;20015;-44
2022/04/25 01:49:31;;;;;;;2.95;1.40;;;22.30;35.20;;;;;;5161696;27;20011;-39
2022/04/25 01:51:57;;;;;;;2.90;1.70;;;22.30;35.20;;;;;;5161813;27;20018;-41
2022/04/25 01:54:25;;;;;;;3.05;1.50;;;22.30;35.20;;;;;;5124039;27;20064;-40
2022/04/25 01:56:52;;;;;;;3.05;1.20;;;22.30;35.30;;;;;;5158757;27;20054;-40
2022/04/25 01:59:19;;;;;;;2.35;1.40;;;22.30;35.30;;;;;;5157991;27;20023;-40
2022/04/25 02:01:45;;;;;;;2.88;1.48;;;22.40;35.30;;;;;;5158703;27;20019;-40
2022/04/25 02:04:10;;;;;;;3.08;1.55;;;22.30;35.30;;;;;;5158654;27;20543;-41
2022/04/25 02:06:37;;;;;;;3.28;1.55;;;22.30;35.30;;;;;;5159333;27;20019;-41
2022/04/25 02:09:03;;;;;;;2.40;1.40;;;22.30;35.30;;;;;;5161616;27;20025;-42
2022/04/25 02:11:31;;;;;;;3.45;1.52;;;22.30;35.40;;;;;;5161083;27;20011;-39
2022/04/25 02:13:56;;;;;;;2.13;1.40;;;22.30;35.40;;;;;;5160618;27;20082;-38
2022/04/25 02:16:22;;;;;;;2.28;1.42;;;22.20;35.40;;;;;;5160272;27;20023;-41
2022/04/25 02:18:49;;;;;;;2.65;1.60;;;22.30;35.40;;;;;;5161346;27;20019;-40
2022/04/25 02:21:15;;;;;;;2.42;1.50;;;22.30;35.40;;;;;;5143252;27;20053;-39
2022/04/25 02:23:42;;;;;;;2.42;1.30;;;22.20;35.40;;;;;;5123830;27;20042;-41
2022/04/25 02:26:08;;;;;;;3.55;1.60;;;22.20;35.50;;;;;;5159424;27;20035;-44
2022/04/25 02:28:34;;;;;;;2.33;1.50;;;22.30;36.10;;;;;;5124326;27;20063;-40
2022/04/25 02:31:01;;;;;;;2.03;1.40;;;22.30;35.50;;;;;;5160685;27;20003;-44
2022/04/25 02:33:27;;;;;;;2.33;1.45;;;22.20;35.50;;;;;;5159195;27;20011;-42
2022/04/25 02:35:54;;;;;;;2.15;1.38;;;22.20;35.50;;;;;;5159409;27;20063;-39
2022/04/25 02:38:20;;;;;;;1.75;1.38;;;22.20;35.70;;;;;;5158508;27;20015;-45
2022/04/25 02:40:46;;;;;;;2.00;1.42;;;22.20;35.50;;;;;;5158642;27;20030;-40
2022/04/25 02:43:12;;;;;;;3.28;1.35;;;22.20;35.50;;;;;;5159975;27;20030;-43
2022/04/25 02:45:39;;;;;;;2.70;1.40;;;22.20;35.50;;;;;;5141156;27;20022;-39
2022/04/25 02:48:05;;;;;;;2.22;1.33;;;22.20;35.60;;;;;;5140714;27;20022;-38
2022/04/25 02:50:31;;;;;;;2.78;1.60;;;22.20;35.60;;;;;;5158308;27;20464;-39
2022/04/25 02:52:57;;;;;;;2.80;1.40;;;22.20;35.60;;;;;;5139155;27;20019;-38
2022/04/25 02:55:24;;;;;;;1.85;1.40;;;22.20;35.60;;;;;;5157944;27;20124;-38
2022/04/25 02:57:50;;;;;;;3.05;1.60;;;22.20;35.60;;;;;;5156102;27;20051;-38
2022/04/25 03:00:17;;;;;;;2.03;1.50;;;22.20;35.60;;;;;;5156808;27;20015;-39
2022/04/25 03:02:43;;;;;;;3.00;1.70;;;22.20;35.70;;;;;;5156357;27;20054;-38
2022/04/25 03:05:09;;;;;;;2.13;1.33;;;22.20;35.70;;;;;;5137648;27;20018;-37
2022/04/25 03:07:35;;;;;;;2.75;1.50;;;22.20;35.60;;;;;;5158050;27;20011;-40
2022/04/25 03:10:01;;;;;;;2.10;1.45;;;22.20;35.70;;;;;;5160720;27;20064;-38
2022/04/25 03:12:29;;;;;;;1.80;1.20;;;22.10;35.70;;;;;;5164299;27;20042;-38
2022/04/25 03:14:55;;;;;;;3.03;1.63;;;22.10;35.70;;;;;;5163352;27;20015;-39
2022/04/25 03:17:21;;;;;;;2.67;1.80;;;22.10;35.70;;;;;;5164678;27;20015;-39
2022/04/25 03:19:49;;;;;;;1.67;1.30;;;22.20;35.80;;;;;;5145355;27;20011;-38
2022/04/25 03:22:17;;;;;;;2.20;1.30;;;22.10;35.70;;;;;;5164002;27;20031;-37
2022/04/25 03:24:43;;;;;;;2.72;1.52;;;22.10;35.80;;;;;;5164668;27;20048;-39
2022/04/25 03:27:10;;;;;;;2.80;1.67;;;22.10;35.70;;;;;;5165906;27;20011;-38
2022/04/25 03:29:36;;;;;;;2.05;1.33;;;22.10;35.80;;;;;;5146179;27;20015;-37
2022/04/25 03:32:03;;;;;;;2.55;1.45;;;22.10;35.80;;;;;;5164634;27;20500;-38
2022/04/25 03:34:28;;;;;;;3.33;1.67;;;22.10;35.80;;;;;;5164225;27;20027;-38
2022/04/25 03:36:56;;;;;;;1.63;1.30;;;22.10;35.80;;;;;;5163838;27;20034;-37
2022/04/25 03:39:22;;;;;;;2.92;1.70;;;22.10;35.80;;;;;;5163942;27;20019;-38
2022/04/25 03:41:48;;;;;;;2.30;1.60;;;22.10;35.90;;;;;;5145727;27;20022;-37
2022/04/25 03:44:14;;;;;;;3.13;1.67;;;22.10;35.90;;;;;;5163578;27;20019;-38
2022/04/25 03:46:41;;;;;;;2.42;1.38;;;22.10;35.90;;;;;;5145419;27;20019;-41
2022/04/25 03:49:07;;;;;;;3.53;1.70;;;22.10;35.90;;;;;;5144889;27;20033;-39
2022/04/25 03:51:32;;;;;;;3.20;1.30;;;22.10;35.90;;;;;;5144762;27;20015;-37
2022/04/25 03:53:58;;;;;;;2.55;1.58;;;22.10;35.90;;;;;;5145966;27;20031;-38
2022/04/25 03:59:08;;;;;;;3.00;1.58;;;22.10;35.90;;;;;;5165021;27;20049;-39
2022/04/25 04:01:36;;;;;;;2.70;1.48;;;22.10;35.90;;;;;;5164499;27;20540;-38
2022/04/25 04:04:05;;;;;;;2.03;1.50;;;22.10;36.00;;;;;;5163576;27;20031;-39
2022/04/25 04:06:32;;;;;;;2.60;1.83;;;22.10;35.90;;;;;;5163537;27;20453;-38
2022/04/25 04:08:59;;;;;;;4.35;1.60;;;22.00;35.90;;;;;;5162926;27;20011;-38
2022/04/25 04:11:46;;;;;;;1.95;1.50;;;22.00;35.90;;;;;;5162147;27;20015;-40
2022/04/25 04:14:10;;;;;;;2.53;1.65;;;22.00;35.90;;;;;;5161645;27;20023;-38
2022/04/25 04:16:36;;;;;;;2.35;1.60;;;22.00;36.00;;;;;;5144503;27;20076;-37
2022/04/25 04:19:05;;;;;;;3.85;1.58;;;22.00;36.00;;;;;;5141026;27;20098;-38
2022/04/25 04:21:30;;;;;;;2.28;1.70;;;22.00;36.00;;;;;;5142036;27;20095;-39
2022/04/25 04:23:59;;;;;;;2.42;1.35;;;22.00;36.00;;;;;;5159747;27;20035;-37
2022/04/25 04:26:24;;;;;;;2.45;1.52;;;22.00;36.00;;;;;;5142646;27;20484;-38
2022/04/25 04:28:51;;;;;;;2.20;1.60;;;22.00;36.00;;;;;;5162511;27;20011;-37
2022/04/25 04:31:17;;;;;;;3.00;1.60;;;22.00;36.00;;;;;;5161924;27;20015;-38
2022/04/25 04:33:43;;;;;;;3.47;1.77;;;22.00;36.00;;;;;;5161495;27;20025;-39
2022/04/25 04:36:18;;;;;;;3.83;1.75;;;22.00;36.00;;;;;;5161330;27;20017;-39
2022/04/25 04:38:45;;;;;;;2.60;1.48;;;22.00;36.10;;;;;;5144061;27;20014;-38
2022/04/25 04:41:11;;;;;;;2.92;1.63;;;22.00;36.10;;;;;;5161829;27;20010;-39
2022/04/25 04:43:38;;;;;;;4.25;1.50;;;22.00;36.10;;;;;;5160784;27;20027;-39
2022/04/25 04:46:04;;;;;;;3.10;1.60;;;22.00;36.10;;;;;;5161052;27;20006;-37
2022/04/25 04:48:30;;;;;;;2.47;1.50;;;22.00;36.00;;;;;;5142179;27;20018;-38
2022/04/25 04:50:58;;;;;;;3.15;1.95;;;22.00;36.10;;;;;;5160749;27;20051;-38
2022/04/25 04:53:24;;;;;;;3.55;1.77;;;22.00;36.10;;;;;;5161418;27;20026;-38
2022/04/25 04:55:51;;;;;;;2.03;1.50;;;22.00;36.00;;;;;;5162708;27;20055;-40
2022/04/25 04:58:20;;;;;;;3.28;1.60;;;22.10;35.90;;;;;;5163675;27;20018;-38
2022/04/25 05:00:47;;;;;;;3.50;1.70;;;22.20;35.80;;;;;;5163250;27;20018;-38
2022/04/25 05:03:15;;;;;;;1.95;1.63;;;22.20;35.70;;;;;;5143240;27;20022;-37
2022/04/25 05:05:41;;;;;;;3.65;1.60;;;22.20;35.70;;;;;;5144375;27;20015;-39
2022/04/25 05:08:08;;;;;;;2.58;1.42;;;22.30;35.60;;;;;;5162053;27;20505;-38
2022/04/25 05:10:34;;;;;;;3.38;1.80;;;22.40;35.50;;;;;;5161202;27;20053;-38
2022/04/25 05:13:00;;;;;;;3.17;1.70;;;22.30;35.40;;;;;;5159994;27;20015;-37
2022/04/25 05:15:25;;;;;;;3.08;1.60;;;22.30;35.30;;;;;;5141726;27;20015;-37
2022/04/25 05:17:53;;;;;;;3.42;1.63;;;22.40;35.30;;;;;;5142209;27;20384;-39
2022/04/25 05:20:20;;;;;;;2.47;1.58;;;22.40;35.10;;;;;;5159860;27;20098;-37
2022/04/25 05:22:47;;;;;;;2.78;1.52;;;22.60;34.90;;;;;;5160424;27;20416;-37
2022/04/25 05:25:14;;;;;;;3.30;1.70;;;22.80;34.60;;;;;;5160698;27;20006;-39
2022/04/25 05:27:41;;;;;;;2.33;1.60;;;23.00;34.30;;;;;;5159306;27;20067;-38
2022/04/25 05:30:07;;;;;;;3.20;1.60;;;23.10;34.60;;;;;;5140957;27;19999;-39
2022/04/25 05:32:52;;;;;;;2.65;1.55;;;23.20;33.80;;;;;;5159907;27;20021;-37
2022/04/25 05:35:19;;;;;;;3.22;1.67;;;23.30;33.60;;;;;;5159832;27;20023;-38
2022/04/25 05:37:45;;;;;;;1.58;1.30;;;23.60;33.30;;;;;;5159677;27;20014;-38
2022/04/25 05:40:11;;;;;;;3.60;1.50;;;23.60;33.00;;;;;;5159086;27;20010;-39
2022/04/25 05:42:39;;;;;;;3.20;1.65;;;23.80;32.70;;;;;;5140835;27;20023;-40
2022/04/25 05:45:05;;;;;;;2.50;1.67;;;24.00;32.50;;;;;;5158596;27;20101;-39
2022/04/25 05:47:33;;;;;;;1.88;1.50;;;24.20;32.30;;;;;;5140305;27;20087;-39
2022/04/25 05:52:44;;;;;;;2.03;1.38;;;24.40;31.80;;;;;;5141330;27;20034;-38
2022/04/25 05:55:10;;;;;;;2.50;1.50;;;24.50;31.50;;;;;;5138850;27;20046;-38
2022/04/25 05:57:36;;;;;;;3.13;1.67;;;24.70;31.50;;;;;;5138560;27;20379;-39
2022/04/25 06:00:05;;;;;;;2.22;1.60;;;24.70;31.30;;;;;;5137961;27;20031;-41
2022/04/25 06:02:31;;;;;;;2.38;1.50;;;24.70;31.20;;;;;;5138191;27;20030;-38
2022/04/25 06:04:57;;;;;;;2.17;1.50;;;24.80;31.20;;;;;;5156518;27;20022;-40
2022/04/25 06:07:23;;;;;;;2.75;1.55;;;24.90;31.10;;;;;;5157745;27;20023;-39
2022/04/25 06:09:49;;;;;;;2.58;1.40;;;24.90;30.90;;;;;;5157092;27;20034;-40
2022/04/25 06:12:15;;;;;;;2.50;1.80;;;25.00;30.80;;;;;;5138444;27;20496;-39
2022/04/25 06:14:41;;;;;;;2.50;1.40;;;25.20;30.70;;;;;;5119880;27;20045;-38
2022/04/25 06:17:07;;;;;;;4.22;1.48;;;25.20;30.60;;;;;;5156479;27;20203;-39
2022/04/25 06:19:34;;;;;;;3.28;1.70;;;25.10;30.50;;;;;;5136668;27;20159;-38
2022/04/25 06:22:00;;;;;;;4.18;1.92;;;25.10;30.60;;;;;;5134134;27;20099;-38
2022/04/25 06:24:26;;;;;;;6.05;2.00;;;24.90;31.00;;;;;;5133998;27;20046;-38
2022/04/25 06:26:52;;;;;;;18.67;2.75;;;24.60;31.60;;;;;;5155191;27;20018;-38
2022/04/25 06:29:19;;;;;;;25.40;4.50;;;24.30;33.80;;;;;;5154355;27;20019;-38
2022/04/25 06:31:44;;;;;;;25.08;4.20;;;24.30;34.80;;;;;;5135527;27;20086;-37
2022/04/25 06:34:10;;;;;;;21.88;3.65;;;24.10;35.10;;;;;;5154207;27;20499;-37
2022/04/25 06:36:36;;;;;;;13.77;3.97;;;24.00;35.10;;;;;;5154792;27;20059;-38
2022/04/25 06:39:03;;;;;;;16.60;3.58;;;23.70;35.10;;;;;;5118913;27;20105;-40
2022/04/25 06:41:28;;;;;;;17.80;4.45;;;23.60;35.20;;;;;;5154205;27;20094;-40
2022/04/25 06:43:54;;;;;;;14.00;3.70;;;23.60;35.10;;;;;;5154384;27;20022;-41
2022/04/25 06:46:21;;;;;;;12.00;4.00;;;23.60;35.10;;;;;;5154866;27;20025;-40
2022/04/25 06:51:31;;;;;;;11.32;3.58;;;23.70;34.60;;;;;;5138583;27;20071;-38
2022/04/25 06:53:57;;;;;;;9.60;4.43;;;23.70;34.30;;;;;;5135618;27;20433;-39
2022/04/25 06:56:23;;;;;;;7.57;3.88;;;23.10;33.60;;;;;;5154753;27;20027;-39
2022/04/25 06:58:49;;;;;;;5.63;3.60;;;23.20;35.00;;;;;;5155618;27;20030;-39
2022/04/25 07:01:15;;;;;;;8.52;3.92;;;23.40;34.70;;;;;;5154800;27;20046;-39
2022/04/25 07:03:40;;;;;;;11.80;4.00;;;23.30;34.10;;;;;;5154495;27;20389;-38
2022/04/25 07:06:06;;;;;;;9.52;4.10;;;23.10;35.30;;;;;;5155254;27;20023;-38
2022/04/25 07:08:35;;;;;;;11.95;4.00;;;22.90;35.20;;;;;;5154806;27;20007;-43
2022/04/25 07:11:01;;;;;;;9.82;3.55;;;23.10;35.20;;;;;;5153695;27;20011;-37
2022/04/25 07:13:27;;;;;;;17.40;4.65;;;23.20;35.40;;;;;;5152500;27;20023;-38
2022/04/25 07:15:53;;;;;;;13.23;3.70;;;22.90;35.50;;;;;;5152228;27;20536;-38
2022/04/25 07:18:20;;;;;;;18.35;4.22;;;23.00;35.80;;;;;;5153402;27;20388;-38
2022/04/25 07:20:45;;;;;;;19.80;3.97;;;23.20;35.90;;;;;;5152701;27;20548;-37
2022/04/25 07:28:49;;;;;;;13.40;3.40;;;23.50;35.80;;;;;;5154349;27;20471;-37
2022/04/25 07:31:15;;;;;;;19.80;4.10;;;23.60;35.70;;;;;;5136774;27;20019;-37
2022/04/25 07:33:43;;;;;;;15.50;3.75;;;23.60;35.30;;;;;;5135738;27;20094;-41
2022/04/25 07:36:09;;;;;;;13.43;3.58;;;23.70;35.80;;;;;;5153770;27;20014;-39
2022/04/25 07:38:36;;;;;;;14.02;3.55;;;23.70;35.10;;;;;;5154155;27;20014;-37
2022/04/25 07:41:02;;;;;;;14.88;3.28;;;23.70;35.20;;;;;;5153683;27;20050;-37
2022/04/25 07:43:31;;;;;;;14.82;3.35;;;23.60;35.00;;;;;;5153601;27;20030;-38
2022/04/25 07:45:59;;;;;;;9.38;3.05;;;23.60;34.80;;;;;;5153599;27;20476;-37
2022/04/25 07:48:25;;;;;;;12.60;2.97;;;23.60;34.50;;;;;;5135670;27;20040;-37
2022/04/25 07:50:51;;;;;;;9.73;2.70;;;23.70;34.50;;;;;;5153591;27;20007;-36
2022/04/25 07:53:16;;;;;;;10.48;3.15;;;23.70;34.40;;;;;;5135980;27;20059;-37
2022/04/25 07:55:42;;;;;;;13.43;3.10;;;23.70;34.30;;;;;;5157117;27;20379;-37
2022/04/25 07:58:08;;;;;;;13.55;3.42;;;23.70;34.20;;;;;;5157448;27;20034;-38
2022/04/25 08:00:35;;;;;;;7.50;2.85;;;23.70;34.10;;;;;;5138665;27;20562;-36
2022/04/25 08:03:01;;;;;;;10.73;3.50;;;23.70;34.10;;;;;;5137550;27;20071;-38
2022/04/25 08:05:27;;;;;;;10.93;3.25;;;23.70;34.00;;;;;;5138822;27;20026;-37
2022/04/25 08:07:54;;;;;;;11.82;2.80;;;23.60;34.00;;;;;;5157101;27;20068;-38
2022/04/25 08:10:20;;;;;;;9.07;3.30;;;23.60;33.90;;;;;;5157010;27;20023;-37
2022/04/25 08:18:17;;;;;;;6.07;2.72;;;23.90;33.30;;;;;;5155806;27;20053;-39
2022/04/25 08:20:43;;;;;;;7.88;3.20;;;24.00;32.80;;;;;;5121438;27;20034;-40
2022/04/25 08:23:11;;;;;;;19.75;3.35;;;24.10;32.60;;;;;;5105209;27;20027;-39
2022/04/25 08:25:41;;;;;;;16.02;3.95;;;24.10;32.50;;;;;;5141027;27;20134;-41
2022/04/25 08:28:07;;;;;;;13.98;3.42;;;24.10;32.50;;;;;;5124390;27;20030;-39
2022/04/25 08:30:33;;;;;;;13.07;3.42;;;24.10;32.70;;;;;;5142868;27;20014;-44
2022/04/25 08:32:59;;;;;;;15.40;3.38;;;24.10;32.60;;;;;;5141980;27;20109;-41
2022/04/25 08:35:25;;;;;;;11.48;3.55;;;24.10;32.40;;;;;;5160532;27;20033;-41
2022/04/25 08:37:51;;;;;;;14.68;3.10;;;24.20;32.20;;;;;;5140009;27;20011;-38
2022/04/25 08:40:17;;;;;;;10.63;3.10;;;24.30;32.00;;;;;;5158347;27;20015;-38
2022/04/25 08:42:43;;;;;;;8.35;2.78;;;24.40;31.80;;;;;;5139776;27;20467;-39
2022/04/25 08:45:09;;;;;;;10.75;3.33;;;24.50;31.60;;;;;;5158438;27;20147;-39
2022/04/25 08:47:55;;;;;;;7.97;2.90;;;24.40;31.50;;;;;;5140066;27;20040;-42
2022/04/25 08:50:21;;;;;;;6.97;2.92;;;24.50;31.50;;;;;;5139418;27;20041;-40
2022/04/25 08:52:47;;;;;;;9.88;2.92;;;24.50;31.40;;;;;;5158209;27;20049;-42
2022/04/25 08:55:13;;;;;;;8.50;2.95;;;24.40;31.30;;;;;;5139967;27;20444;-38
2022/04/25 08:57:41;;;;;;;7.47;2.80;;;24.40;31.20;;;;;;5157783;27;20015;-41
2022/04/25 09:00:07;;;;;;;5.28;2.92;;;24.40;31.20;;;;;;5157478;27;20019;-40
2022/04/25 09:02:34;;;;;;;7.00;3.22;;;24.30;31.80;;;;;;5158258;27;20019;-39
2022/04/25 09:05:01;;;;;;;6.90;2.88;;;24.30;31.20;;;;;;5139483;27;20098;-40
2022/04/25 09:07:27;;;;;;;6.85;3.20;;;24.30;31.20;;;;;;5138425;27;20019;-39
2022/04/25 09:09:54;;;;;;;8.05;3.10;;;24.20;31.20;;;;;;5139351;27;20036;-40
2022/04/25 09:12:19;;;;;;;8.68;3.55;;;24.10;31.30;;;;;;5120676;27;20007;-39
2022/04/25 09:14:48;;;;;;;7.38;3.47;;;24.10;31.30;;;;;;5138519;27;20026;-39
2022/04/25 09:17:13;;;;;;;6.72;3.53;;;24.10;31.40;;;;;;5138865;27;20026;-41
2022/04/25 09:19:39;;;;;;;6.30;3.38;;;24.10;31.30;;;;;;5157277;27;20373;-40
2022/04/25 09:22:06;;;;;;;6.47;3.83;;;24.10;31.30;;;;;;5158039;27;20046;-40
2022/04/25 09:24:44;;;;;;;8.93;3.50;;;24.10;31.30;;;;;;5139125;27;20528;-42
2022/04/25 09:27:12;;;;;;;6.47;3.30;;;24.20;31.30;;;;;;5140931;27;20668;-41
2022/04/25 09:29:41;;;;;;;8.10;3.25;;;24.30;31.10;;;;;;5157299;27;20099;-41
2022/04/25 09:32:10;;;;;;;8.05;3.53;;;24.30;30.90;;;;;;5122383;27;20023;-39
2022/04/25 09:37:20;;;;;;;5.70;3.47;;;24.50;30.70;;;;;;5157078;27;20026;-39
2022/04/25 09:39:46;;;;;;;7.57;3.20;;;24.50;30.60;;;;;;5120931;27;20014;-38
2022/04/25 09:42:12;;;;;;;5.97;3.17;;;24.50;30.60;;;;;;5157320;27;20011;-39
2022/04/25 09:44:58;;;;;;;5.95;3.50;;;24.40;30.60;;;;;;5138280;27;20418;-39
2022/04/25 09:47:36;;;;;;;5.28;3.65;;;24.30;30.60;;;;;;5138933;27;20007;-39
2022/04/25 09:50:09;;;;;;;5.55;3.35;;;24.30;30.60;;;;;;5157870;27;20003;-40
2022/04/25 09:52:51;;;;;;;5.30;3.38;;;24.30;30.80;;;;;;5122214;27;20166;-42
2022/04/25 09:55:17;;;;;;;5.93;3.33;;;24.20;30.80;;;;;;5141699;27;20015;-38
2022/04/25 09:57:44;;;;;;;7.40;3.67;;;24.20;30.70;;;;;;5138140;27;20383;-41
2022/04/25 10:00:10;;;;;;;9.73;3.40;;;24.20;30.50;;;;;;5123287;27;20520;-38
2022/04/25 10:02:40;;;;;;;4.63;3.33;;;24.20;30.30;;;;;;5156687;27;20499;-41
2022/04/25 10:05:13;;;;;;;6.87;4.23;;;24.30;30.30;;;;;;5157227;27;20023;-39
2022/04/25 10:07:40;;;;;;;8.07;3.67;;;24.30;30.30;;;;;;5138931;27;20248;-39
2022/04/25 10:10:06;;;;;;;7.80;3.55;;;24.30;30.30;;;;;;5138596;27;20017;-40
2022/04/25 10:12:34;;;;;;;6.88;4.10;;;24.30;30.30;;;;;;5157187;27;20384;-39
2022/04/25 10:15:00;;;;;;;4.50;3.30;;;24.30;30.20;;;;;;5141429;27;20232;-38
2022/04/25 10:17:27;;;;;;;7.60;3.90;;;24.30;30.00;;;;;;5149945;27;20019;-39
2022/04/25 10:19:53;;;;;;;6.75;3.40;;;24.30;30.10;;;;;;5150012;27;20052;-39
2022/04/25 10:22:19;;;;;;;3.97;3.10;;;24.30;30.00;;;;;;5137484;27;20022;-40
2022/04/25 10:24:45;;;;;;;10.45;3.42;;;24.30;30.00;;;;;;5120339;27;20045;-39
2022/04/25 10:27:15;;;;;;;6.55;3.35;;;24.30;30.00;;;;;;5121188;27;20014;-39
2022/04/25 10:29:44;;;;;;;6.75;3.60;;;24.30;30.00;;;;;;5156187;27;20157;-38
2022/04/25 10:32:12;;;;;;;6.95;3.45;;;24.30;29.90;;;;;;5155931;27;19999;-39
2022/04/25 10:34:51;;;;;;;5.43;3.40;;;24.30;29.80;;;;;;5156469;27;20022;-41
2022/04/25 10:37:36;;;;;;;7.95;3.38;;;24.30;29.80;;;;;;5137545;27;20132;-40
2022/04/25 10:40:06;;;;;;;7.80;3.33;;;24.30;29.80;;;;;;5155495;27;20015;-39
2022/04/25 10:45:16;;;;;;;5.00;3.10;;;24.20;29.80;;;;;;5140605;27;20333;-38
2022/04/25 10:47:59;;;;;;;4.78;3.33;;;24.20;29.80;;;;;;5117982;27;20106;-38
2022/04/25 10:50:26;;;;;;;7.68;3.10;;;24.20;29.60;;;;;;5136161;27;20160;-40
2022/04/25 10:52:54;;;;;;;3.85;3.17;;;24.20;29.60;;;;;;5135381;27;20023;-39
2022/04/25 10:55:21;;;;;;;4.68;3.22;;;24.20;29.70;;;;;;5154717;27;20007;-40
2022/04/25 10:58:02;;;;;;;6.85;3.15;;;24.20;29.70;;;;;;5136751;27;20410;-40
2022/04/25 11:00:39;;;;;;;7.63;3.00;;;24.20;29.60;;;;;;5154700;27;20014;-39
2022/04/25 11:03:09;;;;;;;7.00;2.90;;;24.20;29.60;;;;;;5154386;27;20440;-40
2022/04/25 11:05:42;;;;;;;5.25;2.75;;;24.20;29.50;;;;;;5135651;27;20473;-40
2022/04/25 11:08:19;;;;;;;8.50;3.00;;;24.20;29.50;;;;;;5153751;27;20019;-39
2022/04/25 11:10:45;;;;;;;5.72;2.80;;;24.20;29.50;;;;;;5153493;27;20030;-40
2022/04/25 11:13:12;;;;;;;5.75;3.33;;;24.30;29.60;;;;;;5153446;27;20015;-42
2022/04/25 11:15:42;;;;;;;7.28;2.92;;;24.30;29.60;;;;;;5135537;27;20063;-39
2022/04/25 11:18:33;;;;;;;6.22;2.85;;;24.20;29.70;;;;;;5135659;27;20031;-39
2022/04/25 11:21:02;;;;;;;6.88;2.58;;;24.20;29.70;;;;;;5125793;28;20099;-39
2022/04/25 11:23:29;;;;;;;4.93;2.63;;;24.20;29.70;;;;;;5112205;28;20032;-40
2022/04/25 11:25:55;;;;;;;5.65;2.60;;;24.10;29.70;;;;;;5112495;28;20016;-39
2022/04/25 11:28:21;;;;;;;7.28;3.55;;;24.00;29.90;;;;;;5096094;28;20098;-39
2022/04/25 11:31:13;;;;;;;6.13;2.92;;;24.10;29.90;;;;;;5115071;28;20460;-42
2022/04/25 11:33:42;;;;;;;7.45;3.67;;;24.00;29.80;;;;;;5116151;28;20016;-39
2022/04/25 11:36:08;;;;;;;6.18;2.67;;;24.00;29.70;;;;;;5114599;28;20028;-38
2022/04/25 11:41:31;;;;;;;6.22;2.72;;;23.80;30.00;;;;;;5116015;28;20138;-39
2022/04/25 11:44:00;;;;;;;7.47;2.60;;;23.80;30.20;;;;;;5117536;28;20084;-37
2022/04/25 11:46:31;;;;;;;5.32;2.60;;;23.80;31.10;;;;;;5119299;28;20008;-40
2022/04/25 11:48:56;;;;;;;8.02;2.88;;;23.80;30.90;;;;;;5101539;28;20007;-42
2022/04/25 11:51:29;;;;;;;9.27;2.75;;;23.70;31.30;;;;;;5118540;28;20152;-39
2022/04/25 11:53:59;;;;;;;5.75;2.60;;;23.70;31.60;;;;;;5118546;28;20492;-38
2022/04/25 11:56:28;;;;;;;6.07;2.45;;;23.70;31.90;;;;;;5119039;28;20015;-38
2022/04/25 11:58:54;;;;;;;6.30;2.58;;;23.60;32.00;;;;;;5117895;28;20090;-38
2022/04/25 12:01:37;;;;;;;6.38;2.70;;;23.60;32.00;;;;;;5119076;28;20023;-38
2022/04/25 12:04:35;;;;;;;5.10;2.70;;;23.60;32.10;;;;;;5118511;28;20024;-38
2022/04/25 12:07:08;;;;;;;5.53;2.35;;;23.70;32.20;;;;;;5107023;28;20032;-38
2022/04/25 12:18:30;;;;;;;6.88;2.35;;;23.80;32.60;;;;;;5117080;28;20062;-40
2022/04/25 12:21:15;;;;;;;4.75;2.38;;;23.80;32.50;;;;;;5127913;27;20109;-41
2022/04/25 12:23:51;;;;;;;3.88;2.10;;;23.80;32.40;;;;;;5158807;27;20018;-40
2022/04/25 12:26:32;;;;;;;5.78;2.35;;;23.80;32.40;;;;;;5141638;27;20074;-41
2022/04/25 12:29:03;;;;;;;4.77;2.10;;;23.80;32.40;;;;;;5159328;27;20095;-41
2022/04/25 12:31:47;;;;;;;4.53;2.17;;;23.80;32.40;;;;;;5140023;27;20007;-40
2022/04/25 12:34:13;;;;;;;4.05;2.30;;;23.80;32.30;;;;;;5141434;27;20014;-39
2022/04/25 12:36:48;;;;;;;7.18;2.67;;;23.70;32.20;;;;;;5140380;27;20026;-41
2022/04/25 12:39:15;;;;;;;4.50;2.70;;;23.70;32.30;;;;;;5139713;27;20023;-40
2022/04/25 12:41:50;;;;;;;3.88;2.50;;;23.80;32.60;;;;;;5158526;27;20504;-40
2022/04/25 12:44:17;;;;;;;7.20;2.70;;;23.80;32.70;;;;;;5159608;27;20026;-43
2022/04/25 12:46:53;;;;;;;8.18;2.50;;;23.80;32.80;;;;;;5159592;27;20087;-40
2022/04/25 12:49:34;;;;;;;7.13;2.50;;;23.80;33.10;;;;;;5158667;27;20022;-40
2022/04/25 12:52:00;;;;;;;5.68;2.40;;;23.80;33.30;;;;;;5158284;27;20011;-39
2022/04/25 12:54:37;;;;;;;6.22;2.60;;;23.70;33.50;;;;;;5139972;27;20015;-38
2022/04/25 12:57:16;;;;;;;5.13;2.65;;;23.70;33.60;;;;;;5158988;27;20111;-38
2022/04/25 12:59:47;;;;;;;5.13;2.50;;;23.70;33.60;;;;;;5157214;27;20536;-39
2022/04/25 13:02:16;;;;;;;5.80;2.75;;;23.70;33.90;;;;;;5138755;27;20515;-39
2022/04/25 13:04:54;;;;;;;4.75;2.90;;;23.70;33.80;;;;;;5157633;27;20470;-38
2022/04/25 13:07:38;;;;;;;4.38;2.72;;;23.60;33.90;;;;;;5138267;27;20354;-38
2022/04/25 13:10:06;;;;;;;6.13;3.08;;;23.60;34.00;;;;;;5122447;27;20015;-38
2022/04/25 13:12:39;;;;;;;4.60;3.00;;;23.70;34.10;;;;;;5158052;27;20014;-38
2022/04/25 13:15:06;;;;;;;5.43;3.00;;;23.60;34.20;;;;;;5157404;27;20003;-38
2022/04/25 13:17:36;;;;;;;5.18;3.30;;;23.60;34.30;;;;;;5137691;27;20018;-39
2022/04/25 13:20:09;;;;;;;6.47;2.88;;;23.60;34.40;;;;;;5139805;27;20510;-40
2022/04/25 13:22:36;;;;;;;5.65;3.15;;;23.60;34.60;;;;;;5124152;27;20038;-39
2022/04/25 13:25:02;;;;;;;5.57;3.17;;;23.60;34.80;;;;;;5140909;27;20023;-43
2022/04/25 13:27:29;;;;;;;6.63;3.20;;;23.60;34.90;;;;;;5142085;27;20015;-42
2022/04/25 13:29:55;;;;;;;7.40;3.22;;;23.70;35.00;;;;;;5142616;27;20038;-39